Time,TemperatureF,DewpointF,PressureIn,WindDirection,WindDirectionDegrees,WindSpeedMPH,WindSpeedGustMPH,Humidity,HourlyPrecipIn,Conditions,Clouds,dailyrainin,SoftwareType,DateUTC
2013-05-18 00:02:00,46.0,38.9,29.93,NW,314,1.1,1.1,76,0.00,RA,,0.00,WeatherDisplay:10.37,2013-05-18 07:02:00,
2013-05-18 00:07:00,46.0,38.9,29.93,NW,314,0.0,0.0,76,0.00,RA,,0.00,WeatherDisplay:10.37,2013-05-18 07:07:00,
2013-05-18 00:12:00,46.0,38.9,29.93,NW,314,0.0,0.0,76,0.00,OVC,,0.00,WeatherDisplay:10.37,2013-05-18 07:12:00,
2013-05-18 00:17:00,45.9,38.8,29.93,NW,314,0.0,0.0,76,0.00,OVC,,0.00,WeatherDisplay:10.37,2013-05-18 07:17:00,
2013-05-18 00:22:00,45.5,39.0,29.93,NW,314,3.5,3.5,78,0.00,OVC,,0.00,WeatherDisplay:10.37,2013-05-18 07:22:00,
2013-05-18 00:28:00,45.1,39.0,29.94,NW,314,2.0,2.0,79,0.00,OVC,,0.00,WeatherDisplay:10.37,2013-05-18 07:28:00,
2013-05-18 00:33:00,45.0,39.2,29.94,NW,314,2.3,2.3,80,0.00,OVC,,0.00,WeatherDisplay:10.37,2013-05-18 07:33:00,
2013-05-18 00:38:00,45.0,38.9,29.94,NW,314,1.1,1.1,79,0.00,OVC,,0.00,WeatherDisplay:10.37,2013-05-18 07:38:00,
2013-05-18 00:43:00,45.2,39.1,29.94,NW,314,0.0,0.0,79,0.00,OVC,,0.00,WeatherDisplay:10.37,2013-05-18 07:43:00,
2013-05-18 00:48:00,45.3,39.2,29.94,NW,314,0.0,0.0,79,0.00,OVC,,0.00,WeatherDisplay:10.37,2013-05-18 07:48:00,
2013-05-18 00:53:00,45.3,39.2,29.94,NW,314,0.0,0.0,79,0.00,OVC,,0.00,WeatherDisplay:10.37,2013-05-18 07:53:00,
2013-05-18 00:58:00,45.1,39.3,29.94,NW,314,3.5,3.5,80,0.00,OVC,,0.00,WeatherDisplay:10.37,2013-05-18 07:58:00,
2013-05-18 01:03:00,44.7,39.5,29.93,NW,314,3.5,3.5,82,0.00,OVC,,0.00,WeatherDisplay:10.37,2013-05-18 08:03:00,
2013-05-18 01:08:00,44.2,39.7,29.94,West,277,3.5,3.5,84,0.00,OVC,,0.00,WeatherDisplay:10.37,2013-05-18 08:08:00,
2013-05-18 01:13:00,43.9,40.0,29.94,West,277,3.5,3.5,86,0.00,OVC,,0.00,WeatherDisplay:10.37,2013-05-18 08:13:00,
2013-05-18 01:18:00,43.9,40.3,29.94,West,277,2.3,2.3,87,0.00,OVC,,0.00,WeatherDisplay:10.37,2013-05-18 08:18:00,
2013-05-18 01:23:00,44.0,40.4,29.93,WSW,252,4.6,4.6,87,0.00,OVC,,0.00,WeatherDisplay:10.37,2013-05-18 08:23:00,
2013-05-18 01:28:00,44.2,40.3,29.94,WSW,252,3.5,3.5,86,0.00,OVC,,0.00,WeatherDisplay:10.37,2013-05-18 08:28:00,
2013-05-18 01:33:00,44.3,40.4,29.93,WSW,252,3.5,3.5,86,0.00,OVC,,0.00,WeatherDisplay:10.37,2013-05-18 08:33:00,
2013-05-18 01:38:00,44.3,40.4,29.93,WSW,252,2.3,2.3,86,0.00,OVC,,0.00,WeatherDisplay:10.37,2013-05-18 08:38:00,
2013-05-18 01:43:00,44.4,40.5,29.93,WSW,252,3.5,3.5,86,0.00,OVC,,0.00,WeatherDisplay:10.37,2013-05-18 08:43:00,
2013-05-18 01:48:00,44.7,40.5,29.92,WSW,252,3.5,3.5,85,0.00,OVC,,0.00,WeatherDisplay:10.37,2013-05-18 08:48:00,
2013-05-18 01:53:00,45.2,40.7,29.93,WSW,252,2.3,0.0,84,0.00,OVC,,0.00,WeatherDisplay:10.37,2013-05-18 08:53:00,
2013-05-18 01:58:00,45.5,40.9,29.93,WSW,252,2.3,2.3,84,0.00,OVC,,0.00,WeatherDisplay:10.37,2013-05-18 08:58:00,
2013-05-18 02:03:00,45.9,41.3,29.92,WSW,252,3.5,3.5,84,0.00,-RA,,0.00,WeatherDisplay:10.37,2013-05-18 09:03:00,
2013-05-18 02:08:00,45.6,41.0,29.92,WSW,252,3.5,3.5,84,0.00,-RA,,0.00,WeatherDisplay:10.37,2013-05-18 09:08:00,
2013-05-18 02:13:00,45.3,40.7,29.93,WSW,252,2.3,2.3,84,0.00,-RA,,0.00,WeatherDisplay:10.37,2013-05-18 09:13:00,
2013-05-18 02:18:00,45.5,40.9,29.92,WSW,252,2.3,2.3,84,0.00,-RA,,0.00,WeatherDisplay:10.37,2013-05-18 09:18:00,
2013-05-18 02:23:00,45.9,41.0,29.92,WSW,252,3.5,3.5,83,0.00,-RA,,0.00,WeatherDisplay:10.37,2013-05-18 09:23:00,
2013-05-18 02:28:00,46.1,41.2,29.92,WSW,252,2.3,2.3,83,0.00,-RA,,0.00,WeatherDisplay:10.37,2013-05-18 09:28:00,
2013-05-18 02:33:00,46.0,41.1,29.92,WSW,252,3.5,3.5,83,0.00,-RA,,0.00,WeatherDisplay:10.37,2013-05-18 09:33:00,
2013-05-18 02:38:00,45.9,41.3,29.92,WSW,252,2.3,2.3,84,0.00,-RA,,0.00,WeatherDisplay:10.37,2013-05-18 09:38:00,
2013-05-18 02:43:00,45.6,41.0,29.92,WSW,252,3.5,3.5,84,0.00,-RA,,0.00,WeatherDisplay:10.37,2013-05-18 09:43:00,
2013-05-18 02:48:00,45.7,41.4,29.92,WSW,252,3.5,3.5,85,0.00,-RA,,0.00,WeatherDisplay:10.37,2013-05-18 09:48:00,
2013-05-18 02:53:00,45.9,41.9,29.92,WSW,252,2.3,0.0,86,0.00,-RA,,0.00,WeatherDisplay:10.37,2013-05-18 09:53:00,
2013-05-18 02:58:00,46.1,41.8,29.92,WSW,252,3.5,3.5,85,0.00,-RA,,0.00,WeatherDisplay:10.37,2013-05-18 09:58:00,
2013-05-18 03:03:00,46.5,41.9,29.93,WSW,252,2.3,2.3,84,0.00,OVC,,0.00,WeatherDisplay:10.37,2013-05-18 10:03:00,
2013-05-18 03:08:00,46.7,41.8,29.93,WSW,252,3.5,3.5,83,0.00,OVC,,0.00,WeatherDisplay:10.37,2013-05-18 10:08:00,
2013-05-18 03:13:00,46.9,42.0,29.93,WSW,252,2.3,2.3,83,0.00,OVC,,0.00,WeatherDisplay:10.37,2013-05-18 10:13:00,
2013-05-18 03:18:00,47.1,41.9,29.93,WSW,252,2.3,2.3,82,0.00,OVC,,0.00,WeatherDisplay:10.37,2013-05-18 10:18:00,
2013-05-18 03:23:00,47.1,41.9,29.93,WSW,252,2.3,2.3,82,0.00,OVC,,0.00,WeatherDisplay:10.37,2013-05-18 10:23:00,
2013-05-18 03:28:00,47.1,41.9,29.93,WSW,252,2.3,2.3,82,0.00,OVC,,0.00,WeatherDisplay:10.37,2013-05-18 10:28:00,
2013-05-18 03:34:00,47.0,41.8,29.93,WSW,252,3.5,3.5,82,0.00,OVC,,0.00,WeatherDisplay:10.37,2013-05-18 10:34:00,
2013-05-18 03:39:00,47.0,42.4,29.93,WSW,252,3.5,3.5,84,0.00,OVC,,0.00,WeatherDisplay:10.37,2013-05-18 10:39:00,
2013-05-18 03:44:00,46.8,42.5,29.94,WSW,252,3.5,3.5,85,0.00,OVC,,0.00,WeatherDisplay:10.37,2013-05-18 10:44:00,
2013-05-18 03:49:00,46.7,42.1,29.94,WSW,252,3.5,3.5,84,0.00,OVC,,0.00,WeatherDisplay:10.37,2013-05-18 10:49:00,
2013-05-18 03:54:00,46.7,41.8,29.94,WSW,252,3.0,3.0,83,0.00,OVC,,0.00,WeatherDisplay:10.37,2013-05-18 10:54:00,
2013-05-18 03:59:00,46.8,42.2,29.94,WSW,252,3.5,3.5,84,0.00,OVC,,0.00,WeatherDisplay:10.37,2013-05-18 10:59:00,
2013-05-18 04:04:00,46.8,41.9,29.94,West,276,9.2,9.2,83,0.00,-RA,,0.00,WeatherDisplay:10.37,2013-05-18 11:04:00,
2013-05-18 04:09:00,46.8,41.9,29.93,WNW,283,3.5,3.5,83,0.00,-RA,,0.00,WeatherDisplay:10.37,2013-05-18 11:09:00,
2013-05-18 04:14:00,46.7,41.5,29.93,West,269,11.5,11.5,82,0.00,-RA,,0.00,WeatherDisplay:10.37,2013-05-18 11:14:00,
2013-05-18 04:19:00,46.5,41.3,29.93,West,279,11.5,11.5,82,0.00,-RA,,0.00,WeatherDisplay:10.37,2013-05-18 11:19:00,
2013-05-18 04:24:00,46.3,41.1,29.94,West,275,10.4,10.4,82,0.00,-RA,,0.00,WeatherDisplay:10.37,2013-05-18 11:24:00,
2013-05-18 04:29:00,46.0,40.8,29.95,West,266,9.2,9.2,82,0.00,-RA,,0.00,WeatherDisplay:10.37,2013-05-18 11:29:00,
2013-05-18 04:34:00,45.8,40.9,29.95,West,281,8.1,8.1,83,0.00,-RA,,0.00,WeatherDisplay:10.37,2013-05-18 11:34:00,
2013-05-18 04:39:00,45.6,40.7,29.95,West,277,11.5,11.5,83,0.00,-RA,,0.00,WeatherDisplay:10.37,2013-05-18 11:39:00,
2013-05-18 04:44:00,45.4,40.5,29.95,West,272,10.4,10.4,83,0.00,-RA,,0.00,WeatherDisplay:10.37,2013-05-18 11:44:00,
2013-05-18 04:49:00,45.2,40.7,29.95,West,273,9.2,9.2,84,0.00,-RA,,0.00,WeatherDisplay:10.37,2013-05-18 11:49:00,
2013-05-18 04:54:00,45.0,40.8,29.95,West,274,8.1,8.1,85,0.00,-RA,,0.00,WeatherDisplay:10.37,2013-05-18 11:54:00,
2013-05-18 04:59:00,44.8,40.6,29.97,West,278,6.9,6.9,85,0.00,-RA,,0.00,WeatherDisplay:10.37,2013-05-18 11:59:00,
2013-05-18 05:04:00,44.6,40.7,29.97,West,277,4.0,4.0,86,0.00,OVC,,0.00,WeatherDisplay:10.37,2013-05-18 12:04:00,
2013-05-18 05:09:00,44.4,40.5,29.98,West,278,3.0,3.0,86,0.00,OVC,,0.00,WeatherDisplay:10.37,2013-05-18 12:09:00,
2013-05-18 05:14:00,44.2,40.3,29.98,West,278,0.0,0.0,86,0.00,OVC,,0.00,WeatherDisplay:10.37,2013-05-18 12:14:00,
2013-05-18 05:19:00,44.1,40.2,29.98,West,277,0.0,0.0,86,0.00,OVC,,0.00,WeatherDisplay:10.37,2013-05-18 12:19:00,
2013-05-18 05:24:00,43.9,40.3,29.98,West,278,0.0,0.0,87,0.00,OVC,,0.00,WeatherDisplay:10.37,2013-05-18 12:24:00,
2013-05-18 05:29:00,43.8,40.2,29.98,West,278,0.0,0.0,87,0.00,OVC,,0.00,WeatherDisplay:10.37,2013-05-18 12:29:00,
2013-05-18 05:34:00,43.7,40.1,29.98,West,277,2.3,2.3,87,0.00,OVC,,0.00,WeatherDisplay:10.37,2013-05-18 12:34:00,
2013-05-18 05:39:00,43.6,40.0,29.98,West,278,2.3,2.3,87,0.00,OVC,,0.00,WeatherDisplay:10.37,2013-05-18 12:39:00,
2013-05-18 05:44:00,43.8,40.2,29.99,West,278,3.5,3.5,87,0.00,OVC,,0.00,WeatherDisplay:10.37,2013-05-18 12:44:00,
2013-05-18 05:49:00,44.0,40.4,29.99,West,277,3.5,3.5,87,0.00,OVC,,0.00,WeatherDisplay:10.37,2013-05-18 12:49:00,
2013-05-18 05:54:00,44.2,40.6,29.99,West,278,2.3,2.3,87,0.00,OVC,,0.00,WeatherDisplay:10.37,2013-05-18 12:54:00,
2013-05-18 05:59:00,44.3,40.7,29.99,West,278,3.5,3.5,87,0.00,OVC,,0.00,WeatherDisplay:10.37,2013-05-18 12:59:00,
2013-05-18 06:04:00,44.5,40.9,30.00,West,277,4.0,4.0,87,0.00,OVC,,0.00,WeatherDisplay:10.37,2013-05-18 13:04:00,
2013-05-18 06:09:00,44.7,41.1,30.00,West,278,3.5,3.5,87,0.00,OVC,,0.00,WeatherDisplay:10.37,2013-05-18 13:09:00,
2013-05-18 06:14:00,44.8,41.2,30.01,West,277,3.5,3.5,87,0.00,OVC,,0.00,WeatherDisplay:10.37,2013-05-18 13:14:00,
2013-05-18 06:19:00,45.0,41.4,30.01,West,278,2.3,2.3,87,0.00,OVC,,0.00,WeatherDisplay:10.37,2013-05-18 13:19:00,
2013-05-18 06:24:00,45.0,41.4,30.01,West,278,2.3,2.3,87,0.00,OVC,,0.00,WeatherDisplay:10.37,2013-05-18 13:24:00,
2013-05-18 06:29:00,45.0,41.4,30.01,West,278,3.5,3.5,87,0.00,OVC,,0.00,WeatherDisplay:10.37,2013-05-18 13:29:00,
2013-05-18 06:34:00,45.0,41.4,30.01,West,278,0.0,0.1,87,0.00,OVC,,0.00,WeatherDisplay:10.37,2013-05-18 13:34:00,
2013-05-18 06:39:00,45.0,41.4,30.01,West,278,2.3,2.3,87,0.00,OVC,,0.00,WeatherDisplay:10.37,2013-05-18 13:39:00,
2013-05-18 06:44:00,45.2,41.3,30.01,West,277,3.5,3.5,86,0.00,OVC,,0.00,WeatherDisplay:10.37,2013-05-18 13:44:00,
2013-05-18 06:49:00,45.3,40.7,30.01,West,273,6.0,6.1,84,0.00,OVC,,0.00,WeatherDisplay:10.37,2013-05-18 13:49:00,
2013-05-18 06:54:00,45.3,40.7,30.01,West,277,5.0,5.0,84,0.00,OVC,,0.00,WeatherDisplay:10.37,2013-05-18 13:54:00,
2013-05-18 06:59:00,45.4,41.2,30.01,West,276,4.6,4.6,85,0.00,OVC,,0.00,WeatherDisplay:10.37,2013-05-18 13:59:00,
2013-05-18 07:04:00,45.3,41.1,30.01,West,277,4.0,4.0,85,0.00,-RA,,0.00,WeatherDisplay:10.37,2013-05-18 14:04:00,
2013-05-18 07:09:00,45.2,40.7,30.02,West,276,9.2,9.2,84,0.00,-RA,,0.00,WeatherDisplay:10.37,2013-05-18 14:09:00,
2013-05-18 07:14:00,45.2,40.7,30.02,West,276,4.6,4.6,84,0.00,-RA,,0.00,WeatherDisplay:10.37,2013-05-18 14:14:00,
2013-05-18 07:19:00,45.1,40.6,30.02,West,277,4.0,4.0,84,0.00,-RA,,0.00,WeatherDisplay:10.37,2013-05-18 14:19:00,
2013-05-18 07:24:00,45.1,40.6,30.02,West,277,4.6,4.6,84,0.01,-RA,,0.01,WeatherDisplay:10.37,2013-05-18 14:24:00,
2013-05-18 07:29:00,45.1,40.9,30.02,West,279,4.6,4.6,85,0.01,-RA,,0.01,WeatherDisplay:10.37,2013-05-18 14:29:00,
2013-05-18 07:34:00,45.2,41.0,30.02,West,279,4.0,4.0,85,0.01,-RA,,0.01,WeatherDisplay:10.37,2013-05-18 14:34:00,
2013-05-18 07:40:00,45.4,41.2,30.02,West,279,3.5,3.5,85,0.01,-RA,,0.01,WeatherDisplay:10.37,2013-05-18 14:40:00,
2013-05-18 07:45:00,45.5,41.3,30.02,West,277,5.0,5.0,85,0.01,-RA,,0.01,WeatherDisplay:10.37,2013-05-18 14:45:00,
2013-05-18 07:50:00,45.5,40.9,30.02,West,275,5.8,5.8,84,0.01,-RA,,0.01,WeatherDisplay:10.37,2013-05-18 14:50:00,
2013-05-18 07:55:00,45.5,41.3,30.02,West,275,4.6,4.6,85,0.01,-RA,,0.01,WeatherDisplay:10.37,2013-05-18 14:55:00,
2013-05-18 08:00:00,45.5,42.4,30.03,West,275,4.0,4.0,89,0.01,-RA,,0.01,WeatherDisplay:10.37,2013-05-18 15:00:00,
2013-05-18 08:05:00,45.6,41.4,30.03,West,275,3.5,0.0,85,0.01,OVC,,0.01,WeatherDisplay:10.37,2013-05-18 15:05:00,
2013-05-18 08:10:00,45.6,41.4,30.03,West,275,0.0,0.0,85,0.01,OVC,,0.01,WeatherDisplay:10.37,2013-05-18 15:10:00,
2013-05-18 08:15:00,45.8,41.9,30.03,West,275,0.0,0.0,86,0.01,OVC,,0.01,WeatherDisplay:10.37,2013-05-18 15:15:00,
2013-05-18 08:20:00,45.9,41.9,30.03,West,275,1.0,0.0,86,0.01,OVC,,0.01,WeatherDisplay:10.37,2013-05-18 15:20:00,
2013-05-18 08:25:00,46.0,42.0,30.04,West,275,3.5,3.5,86,0.00,OVC,,0.01,WeatherDisplay:10.37,2013-05-18 15:25:00,
2013-05-18 08:30:00,46.1,41.8,30.04,West,275,2.3,2.3,85,0.00,OVC,,0.01,WeatherDisplay:10.37,2013-05-18 15:30:00,
2013-05-18 08:35:00,46.1,42.1,30.04,West,278,0.0,0.0,86,0.00,OVC,,0.01,WeatherDisplay:10.37,2013-05-18 15:35:00,
2013-05-18 08:40:00,46.1,42.1,30.04,West,278,2.3,2.3,86,0.00,OVC,,0.01,WeatherDisplay:10.37,2013-05-18 15:40:00,
2013-05-18 08:45:00,46.2,42.2,30.03,West,277,1.1,1.1,86,0.00,OVC,,0.01,WeatherDisplay:10.37,2013-05-18 15:45:00,
2013-05-18 08:50:00,46.3,42.0,30.04,West,277,2.3,2.3,85,0.00,OVC,,0.01,WeatherDisplay:10.37,2013-05-18 15:50:00,
2013-05-18 08:55:00,46.3,42.0,30.04,West,277,2.3,2.3,85,0.00,OVC,,0.01,WeatherDisplay:10.37,2013-05-18 15:55:00,
2013-05-18 09:00:00,46.5,42.2,30.05,West,278,2.3,2.3,85,0.00,OVC,,0.01,WeatherDisplay:10.37,2013-05-18 16:00:00,
2013-05-18 09:05:00,46.7,42.4,30.05,West,277,1.1,1.1,85,0.00,OVC,,0.01,WeatherDisplay:10.37,2013-05-18 16:05:00,
2013-05-18 09:10:00,46.9,42.3,30.05,West,278,1.1,0.0,84,0.00,OVC,,0.01,WeatherDisplay:10.37,2013-05-18 16:10:00,
2013-05-18 09:15:00,47.1,42.5,30.05,West,278,0.0,0.0,84,0.00,OVC,,0.01,WeatherDisplay:10.37,2013-05-18 16:15:00,
2013-05-18 09:20:00,47.3,42.4,30.05,West,277,0.0,0.0,83,0.00,OVC,,0.01,WeatherDisplay:10.37,2013-05-18 16:20:00,
2013-05-18 09:25:00,47.5,42.6,30.04,West,278,1.1,0.0,83,0.00,OVC,,0.01,WeatherDisplay:10.37,2013-05-18 16:25:00,
2013-05-18 09:30:00,47.7,42.2,30.04,West,278,3.5,3.5,81,0.00,OVC,,0.01,WeatherDisplay:10.37,2013-05-18 16:30:00,
2013-05-18 09:35:00,47.4,42.2,30.05,West,277,0.0,0.0,82,0.00,OVC,,0.01,WeatherDisplay:10.37,2013-05-18 16:35:00,
2013-05-18 09:40:00,47.4,42.2,30.05,West,277,1.1,1.1,82,0.00,OVC,,0.01,WeatherDisplay:10.37,2013-05-18 16:40:00,
2013-05-18 09:45:00,47.6,42.7,30.04,WNW,286,3.5,3.5,83,0.00,OVC,,0.01,WeatherDisplay:10.37,2013-05-18 16:45:00,
2013-05-18 09:50:00,47.6,42.7,30.04,WNW,288,1.1,0.0,83,0.00,OVC,,0.01,WeatherDisplay:10.37,2013-05-18 16:50:00,
2013-05-18 09:55:00,47.7,42.8,30.05,WNW,288,2.3,2.3,83,0.00,OVC,,0.01,WeatherDisplay:10.37,2013-05-18 16:55:00,
2013-05-18 10:00:00,47.8,42.3,30.05,WNW,288,0.0,0.0,81,0.00,OVC,,0.01,WeatherDisplay:10.37,2013-05-18 17:00:00,
2013-05-18 10:05:00,47.8,42.6,30.05,WNW,288,3.5,3.5,82,0.00,OVC,,0.01,WeatherDisplay:10.37,2013-05-18 17:05:00,
2013-05-18 10:10:00,47.8,42.9,30.05,NW,304,2.3,2.3,83,0.00,OVC,,0.01,WeatherDisplay:10.37,2013-05-18 17:10:00,
2013-05-18 10:15:00,47.7,42.8,30.06,NNE,13,2.3,2.3,83,0.00,OVC,,0.01,WeatherDisplay:10.37,2013-05-18 17:15:00,
2013-05-18 10:20:00,47.5,42.3,30.06,NNE,13,3.5,3.5,82,0.00,OVC,,0.01,WeatherDisplay:10.37,2013-05-18 17:20:00,
2013-05-18 10:25:00,47.3,42.4,30.06,NNE,13,3.5,3.5,83,0.00,OVC,,0.01,WeatherDisplay:10.37,2013-05-18 17:25:00,
2013-05-18 10:30:00,47.3,42.4,30.06,NNE,13,1.1,0.0,83,0.00,OVC,,0.01,WeatherDisplay:10.37,2013-05-18 17:30:00,
2013-05-18 10:35:00,47.4,42.8,30.06,NNE,13,1.1,1.1,84,0.00,OVC,,0.01,WeatherDisplay:10.37,2013-05-18 17:35:00,
2013-05-18 10:40:00,47.4,42.5,30.06,NNW,334,2.3,2.3,83,0.00,OVC,,0.01,WeatherDisplay:10.37,2013-05-18 17:40:00,
2013-05-18 10:45:00,47.6,43.0,30.06,NNW,334,2.3,2.3,84,0.00,OVC,,0.01,WeatherDisplay:10.37,2013-05-18 17:45:00,
2013-05-18 10:50:00,47.7,42.8,30.06,NNW,334,3.5,3.5,83,0.00,OVC,,0.01,WeatherDisplay:10.37,2013-05-18 17:50:00,
2013-05-18 10:55:00,48.0,43.1,30.06,NNW,334,1.1,0.0,83,0.00,OVC,,0.01,WeatherDisplay:10.37,2013-05-18 17:55:00,
2013-05-18 11:00:00,48.2,43.3,30.06,NNW,334,3.5,3.5,83,0.00,OVC,,0.01,WeatherDisplay:10.37,2013-05-18 18:00:00,
2013-05-18 11:05:00,48.5,43.9,30.06,NNW,334,4.0,4.0,84,0.00,OVC,,0.01,WeatherDisplay:10.37,2013-05-18 18:05:00,
2013-05-18 11:10:00,48.7,43.8,30.06,NNW,334,3.5,3.5,83,0.00,OVC,,0.01,WeatherDisplay:10.37,2013-05-18 18:10:00,
2013-05-18 11:15:00,48.7,43.5,30.06,North,9,4.0,4.0,82,0.00,OVC,,0.01,WeatherDisplay:10.37,2013-05-18 18:15:00,
2013-05-18 11:20:00,48.9,43.6,30.06,NW,323,0.0,0.0,82,0.00,OVC,,0.01,WeatherDisplay:10.37,2013-05-18 18:20:00,
2013-05-18 11:25:00,48.7,42.8,30.06,NW,323,1.1,1.1,80,0.00,OVC,,0.01,WeatherDisplay:10.37,2013-05-18 18:25:00,
2013-05-18 11:30:00,48.9,43.6,30.06,NNW,346,3.5,3.5,82,0.00,OVC,,0.01,WeatherDisplay:10.37,2013-05-18 18:30:00,
2013-05-18 11:35:00,49.3,44.4,30.06,NNW,346,2.3,2.3,83,0.00,OVC,,0.01,WeatherDisplay:10.37,2013-05-18 18:35:00,
2013-05-18 11:40:00,50.0,44.4,30.06,North,5,1.1,1.1,81,0.00,OVC,,0.01,WeatherDisplay:10.37,2013-05-18 18:40:00,
2013-05-18 11:45:00,50.3,44.0,30.05,NNE,32,4.6,4.6,79,0.00,OVC,,0.01,WeatherDisplay:10.37,2013-05-18 18:45:00,
2013-05-18 11:50:00,50.6,44.7,30.05,NW,325,6.0,6.0,80,0.00,OVC,,0.01,WeatherDisplay:10.37,2013-05-18 18:50:00,
2013-05-18 11:55:00,51.2,44.6,30.06,NW,326,3.5,3.5,78,0.00,OVC,,0.01,WeatherDisplay:10.37,2013-05-18 18:55:00,
2013-05-18 12:00:00,51.6,44.6,30.05,NNW,328,3.5,3.5,77,0.00,OVC,,0.01,WeatherDisplay:10.37,2013-05-18 19:00:00,
2013-05-18 12:05:00,51.9,44.6,30.05,NW,326,2.3,2.3,76,0.00,OVC,,0.01,WeatherDisplay:10.37,2013-05-18 19:05:00,
2013-05-18 12:10:00,51.8,45.2,30.05,NW,326,1.1,0.0,78,0.00,OVC,,0.01,WeatherDisplay:10.37,2013-05-18 19:10:00,
2013-05-18 12:15:00,51.9,44.6,30.05,North,5,3.5,3.5,76,0.00,OVC,,0.01,WeatherDisplay:10.37,2013-05-18 19:15:00,
2013-05-18 12:21:00,52.2,44.5,30.05,NNW,329,4.6,4.6,75,0.00,OVC,,0.01,WeatherDisplay:10.37,2013-05-18 19:21:00,
2013-05-18 12:26:00,52.3,44.3,30.06,NNW,345,3.5,3.6,74,0.00,OVC,,0.01,WeatherDisplay:10.37,2013-05-18 19:26:00,
2013-05-18 12:31:00,52.2,43.8,30.06,North,360,6.9,6.9,73,0.00,OVC,,0.01,WeatherDisplay:10.37,2013-05-18 19:31:00,
2013-05-18 12:36:00,51.7,42.6,30.06,North,10,4.6,4.6,71,0.00,OVC,,0.01,WeatherDisplay:10.37,2013-05-18 19:36:00,
2013-05-18 12:41:00,51.5,42.8,30.06,NW,310,4.6,4.6,72,0.00,OVC,,0.01,WeatherDisplay:10.37,2013-05-18 19:41:00,
2013-05-18 12:46:00,51.3,42.2,30.06,North,350,4.6,4.6,71,0.00,OVC,,0.01,WeatherDisplay:10.37,2013-05-18 19:46:00,
2013-05-18 12:51:00,51.3,42.6,30.06,WNW,302,9.2,9.2,72,0.00,OVC,,0.01,WeatherDisplay:10.37,2013-05-18 19:51:00,
2013-05-18 12:56:00,51.1,42.0,30.06,NW,317,3.5,3.5,71,0.00,OVC,,0.01,WeatherDisplay:10.37,2013-05-18 19:56:00,
2013-05-18 13:01:00,51.2,41.4,30.06,NNW,344,4.6,4.6,69,0.00,OVC,,0.01,WeatherDisplay:10.37,2013-05-18 20:01:00,
2013-05-18 13:06:00,51.5,42.4,30.06,NNW,331,3.0,3.0,71,0.00,OVC,,0.01,WeatherDisplay:10.37,2013-05-18 20:06:00,
2013-05-18 13:11:00,51.9,42.8,30.05,North,360,2.3,2.3,71,0.00,OVC,,0.01,WeatherDisplay:10.37,2013-05-18 20:11:00,
2013-05-18 13:16:00,52.3,42.4,30.06,North,9,10.4,10.4,69,0.00,OVC,,0.01,WeatherDisplay:10.37,2013-05-18 20:16:00,
2013-05-18 13:21:00,52.4,42.1,30.05,NNW,331,5.8,5.8,68,0.00,OVC,,0.01,WeatherDisplay:10.37,2013-05-18 20:21:00,
2013-05-18 13:26:00,52.2,42.0,30.05,NNW,331,2.3,2.3,68,0.00,OVC,,0.01,WeatherDisplay:10.37,2013-05-18 20:26:00,
2013-05-18 13:31:00,52.1,41.5,30.05,NW,322,6.0,6.0,67,0.00,OVC,,0.01,WeatherDisplay:10.37,2013-05-18 20:31:00,
2013-05-18 13:36:00,52.1,40.7,30.05,NNW,344,5.8,5.8,65,0.00,OVC,,0.01,WeatherDisplay:10.37,2013-05-18 20:36:00,
2013-05-18 13:41:00,52.1,39.9,30.06,NNW,331,5.0,5.0,63,0.00,OVC,,0.01,WeatherDisplay:10.37,2013-05-18 20:41:00,
2013-05-18 13:46:00,52.0,40.6,30.06,NNW,336,5.8,5.8,65,0.00,OVC,,0.01,WeatherDisplay:10.37,2013-05-18 20:46:00,
2013-05-18 13:51:00,52.1,40.7,30.06,NW,308,5.0,5.0,65,0.00,OVC,,0.01,WeatherDisplay:10.37,2013-05-18 20:51:00,
2013-05-18 13:56:00,52.1,39.5,30.06,NW,326,3.5,3.5,62,0.00,OVC,,0.01,WeatherDisplay:10.37,2013-05-18 20:56:00,
2013-05-18 14:01:00,52.3,41.3,30.06,WNW,302,5.8,5.8,66,0.00,OVC,,0.01,WeatherDisplay:10.37,2013-05-18 21:01:00,
2013-05-18 14:06:00,52.4,42.5,30.06,NNE,31,3.5,3.5,69,0.00,OVC,,0.01,WeatherDisplay:10.37,2013-05-18 21:06:00,
2013-05-18 14:11:00,52.8,41.7,30.06,NW,314,3.5,3.5,66,0.00,OVC,,0.01,WeatherDisplay:10.37,2013-05-18 21:11:00,
2013-05-18 14:16:00,53.0,42.7,30.06,NW,321,5.0,5.0,68,0.00,OVC,,0.01,WeatherDisplay:10.37,2013-05-18 21:16:00,
2013-05-18 14:21:00,53.2,41.7,30.06,NW,305,3.0,3.0,65,0.00,OVC,,0.01,WeatherDisplay:10.37,2013-05-18 21:21:00,
2013-05-18 14:26:00,53.1,41.6,30.05,NW,315,4.6,4.6,65,0.00,OVC,,0.01,WeatherDisplay:10.37,2013-05-18 21:26:00,
2013-05-18 14:31:00,52.9,42.2,30.05,NW,318,4.6,4.6,67,0.00,OVC,,0.01,WeatherDisplay:10.37,2013-05-18 21:31:00,
2013-05-18 14:36:00,52.5,41.9,30.06,NW,315,3.5,3.5,67,0.00,OVC,,0.01,WeatherDisplay:10.37,2013-05-18 21:36:00,
2013-05-18 14:41:00,51.9,42.4,30.06,NW,317,3.0,3.0,70,0.00,OVC,,0.01,WeatherDisplay:10.37,2013-05-18 21:41:00,
2013-05-18 14:46:00,52.1,42.6,30.06,NW,317,3.5,0.0,70,0.00,OVC,,0.01,WeatherDisplay:10.37,2013-05-18 21:46:00,
2013-05-18 14:51:00,52.6,42.3,30.06,NW,321,2.3,2.3,68,0.00,OVC,,0.01,WeatherDisplay:10.37,2013-05-18 21:51:00,
2013-05-18 14:56:00,52.8,42.9,30.06,NNW,327,3.5,3.5,69,0.00,OVC,,0.01,WeatherDisplay:10.37,2013-05-18 21:56:00,
2013-05-18 15:01:00,52.9,42.2,30.05,NW,304,0.0,0.3,67,0.00,OVC,,0.01,WeatherDisplay:10.37,2013-05-18 22:01:00,
2013-05-18 15:06:00,53.0,42.3,30.05,NW,304,3.5,3.5,67,0.00,OVC,,0.01,WeatherDisplay:10.37,2013-05-18 22:06:00,
2013-05-18 15:11:00,52.9,41.8,30.05,NNW,329,6.9,6.9,66,0.00,OVC,,0.01,WeatherDisplay:10.37,2013-05-18 22:11:00,
2013-05-18 15:16:00,52.7,42.4,30.05,NNW,329,0.0,0.2,68,0.00,OVC,,0.01,WeatherDisplay:10.37,2013-05-18 22:16:00,
2013-05-18 15:22:00,52.3,41.3,30.06,NNW,332,4.6,4.6,66,0.00,OVC,,0.01,WeatherDisplay:10.37,2013-05-18 22:22:00,
2013-05-18 15:27:00,52.2,42.3,30.06,NNW,331,0.0,0.8,69,0.00,OVC,,0.01,WeatherDisplay:10.37,2013-05-18 22:27:00,
2013-05-18 15:32:00,52.1,41.9,30.06,NNW,348,2.0,2.3,68,0.00,OVC,,0.01,WeatherDisplay:10.37,2013-05-18 22:32:00,
2013-05-18 15:37:00,51.8,41.2,30.06,North,360,5.8,5.8,67,0.00,OVC,,0.01,WeatherDisplay:10.37,2013-05-18 22:37:00,
2013-05-18 15:42:00,51.7,41.9,30.06,North,360,3.5,3.5,69,0.00,OVC,,0.01,WeatherDisplay:10.37,2013-05-18 22:42:00,
2013-05-18 15:47:00,51.5,41.7,30.06,North,360,2.3,2.3,69,0.00,OVC,,0.01,WeatherDisplay:10.37,2013-05-18 22:47:00,
2013-05-18 15:52:00,51.5,41.3,30.06,NNW,344,4.6,4.6,68,0.00,OVC,,0.01,WeatherDisplay:10.37,2013-05-18 22:52:00,
2013-05-18 15:57:00,51.2,41.0,30.06,NW,323,3.5,3.5,68,0.00,OVC,,0.01,WeatherDisplay:10.37,2013-05-18 22:57:00,
2013-05-18 16:02:00,51.1,41.3,30.07,North,360,4.6,4.6,69,0.00,OVC,,0.01,WeatherDisplay:10.37,2013-05-18 23:02:00,
2013-05-18 16:07:00,51.2,41.4,30.07,North,9,3.5,3.5,69,0.00,OVC,,0.01,WeatherDisplay:10.37,2013-05-18 23:07:00,
2013-05-18 16:12:00,51.5,42.0,30.07,North,355,3.5,3.5,70,0.00,OVC,,0.01,WeatherDisplay:10.37,2013-05-18 23:12:00,
2013-05-18 16:17:00,51.7,41.5,30.07,North,9,6.9,6.9,68,0.00,OVC,,0.01,WeatherDisplay:10.37,2013-05-18 23:17:00,
2013-05-18 16:22:00,51.6,41.0,30.07,NNE,28,8.1,8.1,67,0.00,OVC,,0.01,WeatherDisplay:10.37,2013-05-18 23:22:00,
2013-05-18 16:27:00,51.5,42.0,30.07,NW,325,3.5,0.0,70,0.00,OVC,,0.01,WeatherDisplay:10.37,2013-05-18 23:27:00,
2013-05-18 16:32:00,51.8,41.6,30.08,NNW,342,3.5,3.5,68,0.00,OVC,,0.01,WeatherDisplay:10.37,2013-05-18 23:32:00,
2013-05-18 16:37:00,52.3,42.0,30.08,NNW,341,2.3,0.0,68,0.00,OVC,,0.01,WeatherDisplay:10.37,2013-05-18 23:37:00,
2013-05-18 16:42:00,52.5,40.7,30.07,North,350,4.0,4.0,64,0.00,OVC,,0.01,WeatherDisplay:10.37,2013-05-18 23:42:00,
2013-05-18 16:47:00,52.5,40.7,30.07,NW,318,4.6,4.6,64,0.00,OVC,,0.01,WeatherDisplay:10.37,2013-05-18 23:47:00,
2013-05-18 16:52:00,52.6,42.3,30.07,NW,319,0.0,0.0,68,0.00,OVC,,0.01,WeatherDisplay:10.37,2013-05-18 23:52:00,
2013-05-18 16:57:00,52.7,40.9,30.07,NW,323,3.5,3.5,64,0.00,OVC,,0.01,WeatherDisplay:10.37,2013-05-18 23:57:00,
2013-05-18 17:02:00,52.7,41.3,30.08,North,355,1.1,0.0,65,0.00,OVC,,0.01,WeatherDisplay:10.37,2013-05-19 00:02:00,
2013-05-18 17:07:00,52.6,41.2,30.08,North,350,2.3,0.0,65,0.00,OVC,,0.01,WeatherDisplay:10.37,2013-05-19 00:07:00,
2013-05-18 17:12:00,52.7,41.3,30.08,North,350,3.5,3.5,65,0.00,OVC,,0.01,WeatherDisplay:10.37,2013-05-19 00:12:00,
2013-05-18 17:17:00,53.4,42.3,30.08,North,5,1.1,1.1,66,0.00,OVC,,0.01,WeatherDisplay:10.37,2013-05-19 00:17:00,
2013-05-18 17:22:00,54.4,42.5,30.07,NNW,345,6.0,6.0,64,0.00,OVC,,0.01,WeatherDisplay:10.37,2013-05-19 00:22:00,
2013-05-18 17:27:00,54.7,41.9,30.07,NNE,19,7.0,7.0,62,0.00,OVC,,0.01,WeatherDisplay:10.37,2013-05-19 00:27:00,
2013-05-18 17:32:00,54.1,41.4,30.08,North,10,4.6,4.6,62,0.00,OVC,,0.01,WeatherDisplay:10.37,2013-05-19 00:32:00,
2013-05-18 17:37:00,53.9,42.0,30.08,North,10,1.1,1.1,64,0.00,OVC,,0.01,WeatherDisplay:10.37,2013-05-19 00:37:00,
2013-05-18 17:42:00,54.0,42.1,30.07,North,10,0.0,0.0,64,0.00,OVC,,0.01,WeatherDisplay:10.37,2013-05-19 00:42:00,
2013-05-18 17:47:00,54.1,41.8,30.08,NE,38,4.0,4.0,63,0.00,OVC,,0.01,WeatherDisplay:10.37,2013-05-19 00:47:00,
2013-05-18 17:52:00,53.6,40.5,30.08,North,360,3.5,3.5,61,0.00,OVC,,0.01,WeatherDisplay:10.37,2013-05-19 00:52:00,
2013-05-18 17:57:00,53.5,41.6,30.08,ENE,64,2.3,2.3,64,0.00,OVC,,0.01,WeatherDisplay:10.37,2013-05-19 00:57:00,
2013-05-18 18:02:00,53.5,40.4,30.08,NW,323,4.6,4.6,61,0.00,OVC,,0.01,WeatherDisplay:10.37,2013-05-19 01:02:00,
2013-05-18 18:07:00,53.4,39.9,30.08,NNW,342,4.6,4.6,60,0.00,OVC,,0.01,WeatherDisplay:10.37,2013-05-19 01:07:00,
2013-05-18 18:13:00,53.1,40.4,30.08,North,9,4.0,4.0,62,0.00,OVC,,0.01,WeatherDisplay:10.37,2013-05-19 01:13:00,
2013-05-18 18:18:00,52.9,39.8,30.08,North,9,1.1,1.1,61,0.00,OVC,,0.01,WeatherDisplay:10.37,2013-05-19 01:18:00,
2013-05-18 18:23:00,52.6,39.9,30.08,NNE,14,4.6,4.6,62,0.00,OVC,,0.01,WeatherDisplay:10.37,2013-05-19 01:23:00,
2013-05-18 18:28:00,52.2,39.6,30.09,NNE,18,4.6,4.6,62,0.00,OVC,,0.01,WeatherDisplay:10.37,2013-05-19 01:28:00,
2013-05-18 18:33:00,51.6,39.0,30.09,NNE,19,3.5,3.5,62,0.00,OVC,,0.01,WeatherDisplay:10.37,2013-05-19 01:33:00,
2013-05-18 18:38:00,51.5,38.9,30.09,NNE,19,3.5,3.5,62,0.00,OVC,,0.01,WeatherDisplay:10.37,2013-05-19 01:38:00,
2013-05-18 18:43:00,51.4,39.6,30.09,NNE,19,4.6,4.6,64,0.00,OVC,,0.01,WeatherDisplay:10.37,2013-05-19 01:43:00,
2013-05-18 18:48:00,51.3,39.1,30.09,NNE,19,4.0,4.0,63,0.00,OVC,,0.01,WeatherDisplay:10.37,2013-05-19 01:48:00,
2013-05-18 18:53:00,51.3,39.5,30.09,NNE,19,3.5,3.5,64,0.00,OVC,,0.01,WeatherDisplay:10.37,2013-05-19 01:53:00,
2013-05-18 18:58:00,51.0,39.2,30.09,NE,37,3.5,3.5,64,0.00,OVC,,0.01,WeatherDisplay:10.37,2013-05-19 01:58:00,
2013-05-18 19:03:00,50.8,39.8,30.09,NE,48,4.6,4.6,66,0.00,-RA,,0.01,WeatherDisplay:10.37,2013-05-19 02:03:00,
2013-05-18 19:08:00,50.6,39.7,30.10,NE,49,3.5,3.5,66,0.00,-RA,,0.01,WeatherDisplay:10.37,2013-05-19 02:08:00,
2013-05-18 19:13:00,50.5,39.9,30.10,NE,49,3.5,3.5,67,0.00,-RA,,0.01,WeatherDisplay:10.37,2013-05-19 02:13:00,
2013-05-18 19:18:00,50.4,40.2,30.10,NE,49,3.5,3.5,68,0.00,-RA,,0.01,WeatherDisplay:10.37,2013-05-19 02:18:00,
2013-05-18 19:23:00,50.2,40.0,30.10,ENE,57,4.6,4.6,68,0.00,-RA,,0.01,WeatherDisplay:10.37,2013-05-19 02:23:00,
2013-05-18 19:28:00,50.1,40.3,30.10,ENE,66,4.0,4.0,69,0.00,-RA,,0.01,WeatherDisplay:10.37,2013-05-19 02:28:00,
2013-05-18 19:33:00,50.0,39.8,30.10,ENE,66,4.0,4.0,68,0.00,-RA,,0.01,WeatherDisplay:10.37,2013-05-19 02:33:00,
2013-05-18 19:38:00,50.0,39.8,30.10,ENE,66,3.5,3.5,68,0.00,-RA,,0.01,WeatherDisplay:10.37,2013-05-19 02:38:00,
2013-05-18 19:43:00,49.9,40.1,30.10,ENE,65,3.5,3.5,69,0.00,-RA,,0.01,WeatherDisplay:10.37,2013-05-19 02:43:00,
2013-05-18 19:48:00,49.8,40.0,30.10,ENE,66,3.5,3.5,69,0.00,-RA,,0.01,WeatherDisplay:10.37,2013-05-19 02:48:00,
2013-05-18 19:53:00,49.7,39.9,30.10,ENE,65,2.3,2.3,69,0.00,-RA,,0.01,WeatherDisplay:10.37,2013-05-19 02:53:00,
2013-05-18 19:58:00,49.7,40.7,30.10,ENE,65,1.1,0.0,71,0.00,-RA,,0.01,WeatherDisplay:10.37,2013-05-19 02:58:00,
2013-05-18 20:03:00,49.5,40.8,30.10,ENE,66,0.0,0.0,72,0.00,BKN,,0.01,WeatherDisplay:10.37,2013-05-19 03:03:00,
2013-05-18 20:08:00,49.3,40.7,30.11,ENE,66,0.0,0.0,72,0.00,BKN,,0.01,WeatherDisplay:10.37,2013-05-19 03:08:00,
2013-05-18 20:13:00,49.2,40.6,30.11,ENE,65,0.0,0.0,72,0.00,BKN,,0.01,WeatherDisplay:10.37,2013-05-19 03:13:00,
2013-05-18 20:18:00,49.2,40.9,30.12,ENE,66,0.0,0.0,73,0.00,BKN,,0.01,WeatherDisplay:10.37,2013-05-19 03:18:00,
2013-05-18 20:23:00,49.1,40.8,30.12,ENE,66,1.1,1.1,73,0.00,BKN,,0.01,WeatherDisplay:10.37,2013-05-19 03:23:00,
2013-05-18 20:28:00,48.9,41.0,30.12,NNW,337,4.0,4.0,74,0.00,BKN,,0.01,WeatherDisplay:10.37,2013-05-19 03:28:00,
2013-05-18 20:33:00,48.7,40.8,30.12,WNW,300,6.0,6.0,74,0.00,BKN,,0.01,WeatherDisplay:10.37,2013-05-19 03:33:00,
2013-05-18 20:38:00,48.6,40.7,30.12,NW,313,4.6,4.6,74,0.00,BKN,,0.01,WeatherDisplay:10.37,2013-05-19 03:38:00,
2013-05-18 20:43:00,48.5,40.6,30.12,NW,313,3.5,3.5,74,0.00,BKN,,0.01,WeatherDisplay:10.37,2013-05-19 03:43:00,
2013-05-18 20:48:00,48.3,40.7,30.12,NW,313,3.5,3.5,75,0.00,BKN,,0.01,WeatherDisplay:10.37,2013-05-19 03:48:00,
2013-05-18 20:53:00,48.2,40.6,30.12,NW,313,0.0,0.0,75,0.00,BKN,,0.01,WeatherDisplay:10.37,2013-05-19 03:53:00,
2013-05-18 20:58:00,48.1,40.5,30.12,NW,313,0.0,0.0,75,0.00,BKN,,0.01,WeatherDisplay:10.37,2013-05-19 03:58:00,
2013-05-18 21:01:00,48.0,40.5,30.12,NW,313,0.0,0.0,75,0.00,BKN,,0.01,WeatherDisplay:10.37,2013-05-19 04:01:00,
2013-05-18 21:06:00,47.9,40.7,30.12,NW,313,0.0,0.0,76,0.00,FEW,,0.01,WeatherDisplay:10.37,2013-05-19 04:06:00,
2013-05-18 21:11:00,47.8,40.3,30.12,NW,313,0.0,0.0,75,0.00,FEW,,0.01,WeatherDisplay:10.37,2013-05-19 04:11:00,
2013-05-18 21:16:00,47.8,40.3,30.12,NW,313,0.0,0.0,75,0.00,FEW,,0.01,WeatherDisplay:10.37,2013-05-19 04:16:00,
2013-05-18 21:21:00,47.8,40.3,30.12,NW,313,0.0,0.0,75,0.00,FEW,,0.01,WeatherDisplay:10.37,2013-05-19 04:21:00,
2013-05-18 21:26:00,47.7,40.2,30.12,NW,313,0.0,0.0,75,0.00,FEW,,0.01,WeatherDisplay:10.37,2013-05-19 04:26:00,
2013-05-18 21:31:00,47.6,40.1,30.12,NW,313,0.0,0.0,75,0.00,FEW,,0.01,WeatherDisplay:10.37,2013-05-19 04:31:00,
2013-05-18 21:36:00,47.5,40.3,30.12,NW,313,0.0,0.0,76,0.00,FEW,,0.01,WeatherDisplay:10.37,2013-05-19 04:36:00,
2013-05-18 21:41:00,47.5,40.0,30.12,NW,313,0.0,0.0,75,0.00,FEW,,0.01,WeatherDisplay:10.37,2013-05-19 04:41:00,
2013-05-18 21:46:00,47.8,39.9,30.12,NW,313,0.0,0.0,74,0.00,FEW,,0.01,WeatherDisplay:10.37,2013-05-19 04:46:00,
2013-05-18 21:51:00,47.8,39.9,30.12,NW,313,0.0,0.0,74,0.00,FEW,,0.01,WeatherDisplay:10.37,2013-05-19 04:51:00,
2013-05-18 21:56:00,47.6,40.1,30.12,NW,313,0.0,0.0,75,0.00,FEW,,0.01,WeatherDisplay:10.37,2013-05-19 04:56:00,
2013-05-18 22:01:00,47.4,39.9,30.13,NW,313,0.0,0.0,75,0.00,OVC,,0.01,WeatherDisplay:10.37,2013-05-19 05:01:00,
2013-05-18 22:06:00,47.2,39.7,30.13,NW,313,0.0,0.0,75,0.00,OVC,,0.01,WeatherDisplay:10.37,2013-05-19 05:06:00,
2013-05-18 22:11:00,47.2,39.7,30.13,NW,313,0.0,0.0,75,0.00,OVC,,0.01,WeatherDisplay:10.37,2013-05-19 05:11:00,
2013-05-18 22:16:00,47.2,40.7,30.13,NW,313,0.0,0.0,78,0.00,OVC,,0.01,WeatherDisplay:10.37,2013-05-19 05:16:00,
2013-05-18 22:21:00,46.8,40.6,30.13,NW,313,0.0,0.0,79,0.00,OVC,,0.01,WeatherDisplay:10.37,2013-05-19 05:21:00,
2013-05-18 22:26:00,46.5,40.3,30.13,NW,313,0.0,0.0,79,0.00,OVC,,0.01,WeatherDisplay:10.37,2013-05-19 05:26:00,
2013-05-18 22:31:00,46.3,40.5,30.13,NW,313,0.0,0.0,80,0.00,OVC,,0.01,WeatherDisplay:10.37,2013-05-19 05:31:00,
2013-05-18 22:36:00,46.1,39.9,30.13,NW,313,0.0,0.0,79,0.00,OVC,,0.01,WeatherDisplay:10.37,2013-05-19 05:36:00,
2013-05-18 22:41:00,45.9,39.4,30.13,NW,313,0.0,0.0,78,0.00,OVC,,0.01,WeatherDisplay:10.37,2013-05-19 05:41:00,
2013-05-18 22:46:00,45.8,39.3,30.13,NW,313,0.0,0.0,78,0.00,OVC,,0.01,WeatherDisplay:10.37,2013-05-19 05:46:00,
2013-05-18 22:51:00,45.7,38.9,30.13,NW,313,0.0,0.0,77,0.00,OVC,,0.01,WeatherDisplay:10.37,2013-05-19 05:51:00,
2013-05-18 22:56:00,45.7,38.9,30.13,NW,313,0.0,0.0,77,0.00,OVC,,0.01,WeatherDisplay:10.37,2013-05-19 05:56:00,
2013-05-18 23:01:00,45.7,38.9,30.11,NW,313,0.0,0.0,77,0.00,OVC,,0.01,WeatherDisplay:10.37,2013-05-19 06:01:00,
2013-05-18 23:06:00,45.7,38.9,30.12,NW,313,0.0,0.0,77,0.00,OVC,,0.01,WeatherDisplay:10.37,2013-05-19 06:06:00,
2013-05-18 23:11:00,45.6,39.1,30.12,NW,313,0.0,0.0,78,0.00,OVC,,0.01,WeatherDisplay:10.37,2013-05-19 06:11:00,
2013-05-18 23:16:00,45.5,39.0,30.12,NW,313,0.0,0.0,78,0.00,OVC,,0.01,WeatherDisplay:10.37,2013-05-19 06:16:00,
2013-05-18 23:21:00,45.4,38.9,30.12,NW,313,0.0,0.0,78,0.00,OVC,,0.01,WeatherDisplay:10.37,2013-05-19 06:21:00,
2013-05-18 23:26:00,45.5,39.0,30.12,NW,313,3.0,3.0,78,0.00,OVC,,0.01,WeatherDisplay:10.37,2013-05-19 06:26:00,
2013-05-18 23:31:00,45.6,38.8,30.12,NW,313,1.1,0.0,77,0.00,OVC,,0.01,WeatherDisplay:10.37,2013-05-19 06:31:00,
2013-05-18 23:37:00,45.6,38.8,30.12,NW,313,0.0,0.0,77,0.00,OVC,,0.01,WeatherDisplay:10.37,2013-05-19 06:37:00,
2013-05-18 23:42:00,45.7,38.9,30.12,NW,313,2.3,2.3,77,0.00,OVC,,0.01,WeatherDisplay:10.37,2013-05-19 06:42:00,
2013-05-18 23:47:00,45.7,38.9,30.13,NW,313,2.3,0.0,77,0.00,OVC,,0.01,WeatherDisplay:10.37,2013-05-19 06:47:00,
2013-05-18 23:52:00,45.8,39.0,30.13,NW,313,0.0,0.0,77,0.00,OVC,,0.01,WeatherDisplay:10.37,2013-05-19 06:52:00,
2013-05-18 23:57:00,45.8,39.0,30.13,NW,313,0.0,0.0,77,0.00,OVC,,0.01,WeatherDisplay:10.37,2013-05-19 06:57:00,